createdAt,value
2022-10-11T00:03:46.452Z,55.26
2022-10-11T00:08:05.674Z,53.83
2022-10-11T00:12:21.767Z,53.24
2022-10-11T00:16:41.101Z,53.94
2022-10-11T00:21:05.501Z,52.81
2022-10-11T00:25:21.768Z,52.29
2022-10-11T00:29:39.052Z,54.24
2022-10-11T00:33:55.922Z,53.87
2022-10-11T00:38:12.214Z,53.19
2022-10-11T00:42:28.400Z,52.65
2022-10-11T00:46:56.095Z,52.25
2022-10-11T00:51:26.135Z,52.89
2022-10-11T00:55:51.664Z,53.35
2022-10-11T01:00:11.675Z,53.14
2022-10-11T01:04:27.765Z,52.82
2022-10-11T01:08:44.042Z,53.13
2022-10-11T01:13:42.048Z,53.98
2022-10-11T01:18:00.876Z,54.92
2022-10-11T01:22:51.888Z,53.67
2022-10-11T01:27:40.286Z,52.80
2022-10-11T01:32:27.184Z,52.18
2022-10-11T01:37:02.738Z,50.98
2022-10-11T01:41:43.845Z,51.90
2022-10-11T01:46:00.643Z,52.69
2022-10-11T01:50:38.586Z,52.43
2022-10-11T01:55:13.485Z,53.64
2022-10-11T01:59:39.470Z,53.68
2022-10-11T02:04:06.925Z,52.79
2022-10-11T02:08:48.831Z,51.49
2022-10-11T02:13:32.403Z,51.38
2022-10-11T02:17:55.768Z,53.98
2022-10-11T02:22:22.083Z,55.75
2022-10-11T02:26:39.329Z,55.13
2022-10-11T02:30:56.975Z,55.11
2022-10-11T02:35:13.827Z,54.68
2022-10-11T02:39:39.638Z,56.10
2022-10-11T02:44:03.546Z,55.12
2022-10-11T02:48:19.735Z,53.73
2022-10-11T02:52:35.791Z,54.35
2022-10-11T02:56:51.893Z,55.10
2022-10-11T03:01:08.233Z,54.53
2022-10-11T03:05:24.313Z,54.75
2022-10-11T03:09:40.862Z,54.05
2022-10-11T03:13:57.019Z,53.82
2022-10-11T03:18:13.051Z,54.83
2022-10-11T03:22:29.050Z,54.23
2022-10-11T03:26:45.224Z,55.50
2022-10-11T03:31:01.221Z,55.42
2022-10-11T03:35:18.028Z,57.65
2022-10-11T03:39:34.176Z,56.62
2022-10-11T03:43:50.214Z,54.22
2022-10-11T03:48:06.587Z,53.64
2022-10-11T03:52:23.073Z,53.55
2022-10-11T03:56:39.081Z,52.60
2022-10-11T04:00:55.149Z,52.29
2022-10-11T04:05:12.772Z,51.42
2022-10-11T04:09:28.950Z,51.26
2022-10-11T04:13:45.317Z,51.88
2022-10-11T04:18:04.886Z,52.79
2022-10-11T04:22:20.995Z,52.72
2022-10-11T04:26:37.037Z,53.81
2022-10-11T04:30:53.149Z,53.99
2022-10-11T04:35:09.575Z,53.72
2022-10-11T04:39:25.547Z,54.21
2022-10-11T04:43:41.677Z,53.81
2022-10-11T04:47:57.892Z,53.58
2022-10-11T04:52:14.057Z,53.24
2022-10-11T04:56:30.880Z,53.38
2022-10-11T05:00:46.909Z,53.03
2022-10-11T05:05:02.906Z,53.12
2022-10-11T05:09:19.359Z,52.82
2022-10-11T05:13:36.110Z,54.57
2022-10-11T05:17:52.208Z,55.23
2022-10-11T05:22:08.369Z,54.94
2022-10-11T05:26:27.840Z,53.68
2022-10-11T05:30:44.074Z,53.69
2022-10-11T05:35:00.134Z,54.64
2022-10-11T05:39:16.253Z,55.63
2022-10-11T05:43:32.693Z,55.71
2022-10-11T05:47:48.968Z,56.31
2022-10-11T05:52:06.828Z,55.91
2022-10-11T05:56:24.765Z,55.67
2022-10-11T06:00:41.100Z,55.21
2022-10-11T06:04:57.129Z,54.93
2022-10-11T06:09:13.237Z,53.88
2022-10-11T06:13:29.342Z,58.44
2022-10-11T06:17:46.459Z,55.41
2022-10-11T06:22:02.858Z,55.90
2022-10-11T06:26:19.288Z,53.82
2022-10-11T06:30:35.437Z,52.46
2022-10-11T06:34:51.676Z,52.27
2022-10-11T06:39:07.792Z,53.16
2022-10-11T06:43:25.411Z,52.30
2022-10-11T06:47:41.398Z,52.82
2022-10-11T06:51:57.464Z,51.50
2022-10-11T06:56:13.720Z,52.95
2022-10-11T07:00:29.772Z,52.04
2022-10-11T07:04:45.826Z,51.54
2022-10-11T07:09:02.013Z,50.51
2022-10-11T07:13:18.014Z,50.45
2022-10-11T07:17:34.077Z,49.98
2022-10-11T07:21:50.368Z,49.53
2022-10-11T07:26:08.169Z,49.75
2022-10-11T07:30:24.462Z,50.61
2022-10-11T07:34:40.603Z,50.59
2022-10-11T07:38:56.634Z,50.91
2022-10-11T07:43:13.701Z,49.65
2022-10-11T07:47:29.804Z,48.07
2022-10-11T07:51:46.389Z,47.92
2022-10-11T07:56:02.882Z,46.33
2022-10-11T08:00:19.313Z,46.98
2022-10-11T08:04:35.416Z,48.76
2022-10-11T08:08:51.582Z,49.68
2022-10-11T08:13:07.733Z,49.64
2022-10-11T08:17:24.004Z,48.80
2022-10-11T08:21:40.146Z,49.21
2022-10-11T08:25:58.495Z,50.57
2022-10-11T08:30:14.677Z,48.08
2022-10-11T08:34:30.749Z,47.65
2022-10-11T08:38:46.800Z,46.62
2022-10-11T08:43:08.633Z,45.78
2022-10-11T08:47:31.022Z,45.53
2022-10-11T08:51:52.845Z,46.36
2022-10-11T08:56:12.023Z,47.15
2022-10-11T09:00:31.707Z,46.31
2022-10-11T09:04:50.724Z,44.93
2022-10-11T09:09:35.135Z,46.09
2022-10-11T09:13:54.155Z,45.27
2022-10-11T09:18:23.231Z,47.02
2022-10-11T09:22:53.010Z,47.20
2022-10-11T09:27:33.249Z,46.65
2022-10-11T09:31:58.563Z,45.85
2022-10-11T09:36:28.599Z,45.98
2022-10-11T09:40:54.966Z,44.63
2022-10-11T09:45:22.372Z,44.86
2022-10-11T09:49:45.544Z,45.39
2022-10-11T09:54:06.562Z,46.03
2022-10-11T09:58:30.055Z,46.57
2022-10-11T10:02:49.181Z,46.67
2022-10-11T10:07:13.278Z,46.18
2022-10-11T10:11:36.212Z,46.44
2022-10-11T10:15:55.627Z,44.28
2022-10-11T10:20:22.944Z,42.13
2022-10-11T10:24:41.443Z,43.49
2022-10-11T10:29:23.859Z,45.59
2022-10-11T10:33:40.063Z,44.95
2022-10-11T10:38:29.702Z,42.81
2022-10-11T10:42:45.788Z,43.86
2022-10-11T10:47:19.673Z,41.73
2022-10-11T10:52:13.229Z,41.35
2022-10-11T10:56:49.445Z,39.63
2022-10-11T11:01:37.964Z,39.49
2022-10-11T11:06:01.790Z,39.67
2022-10-11T11:10:25.345Z,39.19
2022-10-11T11:14:45.807Z,39.39
2022-10-11T11:19:43.901Z,39.80
2022-10-11T11:24:27.164Z,41.27
2022-10-11T11:29:12.065Z,40.93
2022-10-11T11:33:36.746Z,41.36
2022-10-11T11:38:02.521Z,39.79
2022-10-11T11:42:31.239Z,38.99
2022-10-11T11:47:20.580Z,38.32
2022-10-11T11:51:41.605Z,38.69
2022-10-11T11:56:11.895Z,37.42
2022-10-11T12:01:07.413Z,38.08
2022-10-11T12:05:33.293Z,36.26
2022-10-11T12:10:22.585Z,36.05
2022-10-11T12:14:41.327Z,39.17
2022-10-11T12:18:57.492Z,38.27
2022-10-11T12:23:31.431Z,38.23
2022-10-11T12:27:50.142Z,36.59
2022-10-11T12:32:06.113Z,35.05
2022-10-11T12:36:44.655Z,36.88
2022-10-11T12:41:09.716Z,34.63
2022-10-11T12:45:30.462Z,34.10
2022-10-11T12:50:06.234Z,35.14
2022-10-11T12:54:34.506Z,37.72
2022-10-11T12:59:01.578Z,35.12
2022-10-11T13:03:41.272Z,36.44
2022-10-11T13:07:59.411Z,38.28
2022-10-11T13:12:18.463Z,37.36
2022-10-11T13:17:00.498Z,37.91
2022-10-11T13:21:27.880Z,37.34
2022-10-11T13:25:44.026Z,37.86
2022-10-11T13:30:02.566Z,36.72
2022-10-11T13:34:23.048Z,35.69
2022-10-11T13:38:40.875Z,36.87
2022-10-11T13:42:57.270Z,38.87
2022-10-11T13:47:18.951Z,39.75
2022-10-11T13:51:36.444Z,38.47
2022-10-11T13:56:06.189Z,37.38
2022-10-11T14:00:22.602Z,36.49
2022-10-11T14:04:41.774Z,36.28
2022-10-11T14:08:59.943Z,37.78
2022-10-11T14:13:41.321Z,38.28
2022-10-11T14:17:57.656Z,35.70
2022-10-11T14:22:18.101Z,34.46
2022-10-11T14:26:41.033Z,34.41
2022-10-11T14:30:56.895Z,32.23
2022-10-11T14:35:24.458Z,31.41
2022-10-11T14:39:41.832Z,31.53
2022-10-11T14:43:58.064Z,32.30
2022-10-11T14:48:15.569Z,31.98
2022-10-11T14:52:33.424Z,32.80
2022-10-11T14:56:51.137Z,31.44
2022-10-11T15:01:07.372Z,31.05
2022-10-11T15:05:29.827Z,27.63
2022-10-11T15:09:48.842Z,26.12
2022-10-11T15:14:05.858Z,26.72
2022-10-11T15:18:22.032Z,27.26
2022-10-11T15:22:38.273Z,28.39
2022-10-11T15:26:54.370Z,30.86
2022-10-11T15:31:14.303Z,34.77
2022-10-11T15:35:31.114Z,36.95
2022-10-11T15:39:47.202Z,36.82
2022-10-11T15:44:03.282Z,37.36
2022-10-11T15:48:21.407Z,37.36
2022-10-11T15:52:37.518Z,39.44
2022-10-11T15:56:53.590Z,40.79
2022-10-11T16:01:20.133Z,42.13
2022-10-11T16:05:36.364Z,43.37
2022-10-11T16:09:52.414Z,43.24
2022-10-11T16:14:08.421Z,44.80
2022-10-11T16:18:24.791Z,45.06
2022-10-11T16:22:41.129Z,45.20
2022-10-11T16:26:57.404Z,46.90
2022-10-11T16:31:18.436Z,47.50
2022-10-11T16:35:34.434Z,47.24
2022-10-11T16:39:50.607Z,48.51
2022-10-11T16:44:07.103Z,48.79
2022-10-11T16:48:23.155Z,48.48
2022-10-11T16:52:39.149Z,48.86
2022-10-11T16:56:55.176Z,48.11
2022-10-11T17:01:12.286Z,48.94
2022-10-11T17:05:28.435Z,49.07
2022-10-11T17:09:46.074Z,49.36
2022-10-11T17:14:03.379Z,49.17
2022-10-11T17:18:19.441Z,49.65
2022-10-11T17:22:35.683Z,49.34
2022-10-11T17:26:52.078Z,49.87
2022-10-11T17:31:09.101Z,50.17
2022-10-11T17:35:25.704Z,49.51
2022-10-11T17:39:41.833Z,51.46
2022-10-11T17:44:00.023Z,52.14
2022-10-11T17:48:16.106Z,53.29
2022-10-11T17:52:32.256Z,52.17
2022-10-11T17:56:48.540Z,52.20
2022-10-11T18:01:07.139Z,52.00
2022-10-11T18:05:23.537Z,52.98
2022-10-11T18:09:41.155Z,53.70
2022-10-11T18:13:57.455Z,52.64
2022-10-11T18:18:15.782Z,51.93
2022-10-11T18:22:31.934Z,52.86
2022-10-11T18:26:48.175Z,52.03
2022-10-11T18:31:12.620Z,52.85
2022-10-11T18:35:30.782Z,52.25
2022-10-11T18:39:47.198Z,52.45
2022-10-11T18:44:06.071Z,52.80
2022-10-11T18:48:22.188Z,52.58
2022-10-11T18:52:41.252Z,53.53
2022-10-11T18:57:00.536Z,54.56
2022-10-11T19:01:25.112Z,54.22
2022-10-11T19:05:41.235Z,54.08
2022-10-11T19:09:57.344Z,55.05
2022-10-11T19:14:18.796Z,54.94
2022-10-11T19:18:36.281Z,55.19
2022-10-11T19:22:54.399Z,55.37
2022-10-11T19:27:10.520Z,55.86
2022-10-11T19:31:27.444Z,56.27
2022-10-11T19:35:55.118Z,56.42
2022-10-11T19:40:11.890Z,55.82
2022-10-11T19:44:28.029Z,56.74
2022-10-11T19:48:44.856Z,56.71
2022-10-11T19:53:00.866Z,56.87
2022-10-11T19:57:17.137Z,57.57
2022-10-11T20:01:33.866Z,57.75
2022-10-11T20:05:52.180Z,56.49
2022-10-11T20:10:08.470Z,56.62
2022-10-11T20:14:24.934Z,57.04
2022-10-11T20:18:41.545Z,56.65
2022-10-11T20:22:57.511Z,56.16
2022-10-11T20:27:13.546Z,56.48
2022-10-11T20:31:34.510Z,56.77
2022-10-11T20:36:06.613Z,58.78
2022-10-11T20:40:24.106Z,58.75
2022-10-11T20:44:40.330Z,59.08
2022-10-11T20:49:02.326Z,58.21
2022-10-11T20:53:19.981Z,59.06
2022-10-11T20:57:36.604Z,57.95
2022-10-11T21:01:52.884Z,58.33
2022-10-11T21:06:09.667Z,59.06
2022-10-11T21:10:25.892Z,59.03
2022-10-11T21:14:42.280Z,58.87
2022-10-11T21:19:00.131Z,57.65
2022-10-11T21:23:16.615Z,59.23
2022-10-11T21:27:33.295Z,58.21
2022-10-11T21:31:49.917Z,57.94
2022-10-11T21:36:12.403Z,59.27
2022-10-11T21:40:28.639Z,60.94
2022-10-11T21:44:44.805Z,60.46
2022-10-11T21:49:03.236Z,62.28
2022-10-11T21:53:19.378Z,59.66
2022-10-11T21:57:35.461Z,59.73
2022-10-11T22:01:51.573Z,59.94
2022-10-11T22:06:07.706Z,60.04
2022-10-11T22:10:23.824Z,59.93
2022-10-11T22:14:39.963Z,59.76
2022-10-11T22:18:56.001Z,60.04
2022-10-11T22:23:12.068Z,60.60
2022-10-11T22:27:28.128Z,60.67
2022-10-11T22:31:44.137Z,61.08
2022-10-11T22:36:01.869Z,60.24
2022-10-11T22:40:18.678Z,60.14
2022-10-11T22:44:34.731Z,60.89
2022-10-11T22:48:50.909Z,60.27
2022-10-11T22:53:07.955Z,60.67
2022-10-11T22:57:23.998Z,62.17
2022-10-11T23:01:40.018Z,61.25
2022-10-11T23:05:57.102Z,60.24
2022-10-11T23:10:13.324Z,60.36
2022-10-11T23:14:29.456Z,59.91
2022-10-11T23:18:45.582Z,59.63
2022-10-11T23:27:30.173Z,60.73
2022-10-11T23:31:47.191Z,60.00
2022-10-11T23:36:03.315Z,60.32
2022-10-11T23:40:19.351Z,60.92
2022-10-11T23:44:35.294Z,60.19
2022-10-11T23:48:51.363Z,59.65
2022-10-11T23:53:07.418Z,59.59
2022-10-11T23:57:23.444Z,59.74
